Portada
METAR-TAF:

METAR-TAF

Aeroports :

Bangalore, Índia

latitud: 12-57-00N, longitud: 077-40-06E, altitud: 888 m

Observació

L'informe es va fer fa 3 hores i 2 minuts, a les 18:00 UTC
Vent 6 kt del Nord-Est
Temperatura 23°C
Humitat 83%
Pressió 1016 hPa
Visibilitat: 6000 m
Núvols disperses a una alçada de 1200 ft
Escasses núvols a una alçada de 2500 ft, Cumulonimbus.
Cel ennuvolat a una alçada de 8000 ft

METAR: VOBG 261800Z 04006KT 6000 SCT012 FEW025CB BKN080 23/20 Q1016 NOSIG

Hora: 02:32 (21:02 UTC)

Pronòstic

L'informe es va fer fa 1 hora i 2 minuts, a les 20:00 UTC
Pronòstic vàlid del 26 a les 21 UTC al 27 a les 06 UTC
Vent 10 kt del Oest/Nord-Oest
Visibilitat: 6000 m
Núvols disperses a una alçada de 1200 ft
Núvols disperses a una alçada de 8000 ft

TAF: VOBG 262000Z 2621/2706 29010KT 6000 SCT012 SCT080

Observacions i pronòstics meteorològics de més de 4000 aeroports (METAR i TAF).

Les estacions disponibles són els punts grocs i vermells al mapa.

Posi el ratolí al punt desitjat per veure el nom de l'estació.

Feu clic per veure les observacions i els pronòstics meteorològics.

Per canviar el mapa: feu clic els botons verds amb una creu de color negre per apropar; al botó verd amb un guió per allunyar la imatge; o en les fletxes verdes per a mapes adjacents.


METAR-TAF: